Time,TemperatureF,DewpointF,PressureIn,WindDirection,WindDirectionDegrees,WindSpeedMPH,WindSpeedGustMPH,Humidity,HourlyPrecipIn,Conditions,Clouds,dailyrainin,SoftwareType,DateUTC
2013-02-18 00:02:00,32.9,22.0,30.34,WNW,299,0.0,-999.0,65,-99.99,,,0.00,weatherlink.com 1.10,2013-02-18 05:02:00,
2013-02-18 00:17:00,32.8,23.0,30.34,NW,317,0.0,-999.0,67,-99.99,,,0.00,weatherlink.com 1.10,2013-02-18 05:17:00,
2013-02-18 00:32:00,32.3,22.0,30.34,NW,325,0.0,-999.0,67,-99.99,,,0.00,weatherlink.com 1.10,2013-02-18 05:32:00,
2013-02-18 00:47:00,32.1,22.0,30.35,NNW,336,0.0,-999.0,66,-99.99,,,0.00,weatherlink.com 1.10,2013-02-18 05:47:00,
2013-02-18 01:02:00,31.8,22.0,30.36,NW,325,0.0,-999.0,66,-99.99,,,0.00,weatherlink.com 1.10,2013-02-18 06:02:00,
2013-02-18 01:17:00,31.4,21.0,30.36,NNW,336,0.0,-999.0,65,-99.99,,,0.00,weatherlink.com 1.10,2013-02-18 06:17:00,
2013-02-18 01:32:00,31.3,20.0,30.36,WNW,299,0.0,-999.0,64,-99.99,,,0.00,weatherlink.com 1.10,2013-02-18 06:32:00,
2013-02-18 01:47:00,31.1,20.0,30.37,North,11,0.0,-999.0,63,-99.99,,,0.00,weatherlink.com 1.10,2013-02-18 06:47:00,
2013-02-18 02:02:00,30.5,20.0,30.37,North,355,0.0,-999.0,65,-99.99,,,0.00,weatherlink.com 1.10,2013-02-18 07:02:00,
2013-02-18 02:17:00,30.5,20.0,30.37,North,5,0.0,-999.0,64,-99.99,,,0.00,weatherlink.com 1.10,2013-02-18 07:17:00,
2013-02-18 02:32:00,30.7,19.0,30.37,North,355,0.0,-999.0,62,-99.99,,,0.00,weatherlink.com 1.10,2013-02-18 07:32:00,
2013-02-18 02:47:00,31.0,19.0,30.37,NNE,31,0.0,-999.0,61,-99.99,,,0.00,weatherlink.com 1.10,2013-02-18 07:47:00,
2013-02-18 03:02:00,30.9,19.0,30.37,North,355,0.0,-999.0,61,-99.99,,,0.00,weatherlink.com 1.10,2013-02-18 08:02:00,
2013-02-18 03:17:00,31.0,19.0,30.37,North,5,0.0,-999.0,61,-99.99,,,0.00,weatherlink.com 1.10,2013-02-18 08:17:00,
2013-02-18 03:32:00,30.8,18.0,30.37,North,355,0.0,-999.0,60,-99.99,,,0.00,weatherlink.com 1.10,2013-02-18 08:32:00,
2013-02-18 03:47:00,30.3,19.0,30.38,North,355,0.0,-999.0,62,-99.99,,,0.00,weatherlink.com 1.10,2013-02-18 08:47:00,
2013-02-18 04:02:00,30.2,19.0,30.39,North,5,0.0,-999.0,63,-99.99,,,0.00,weatherlink.com 1.10,2013-02-18 09:02:00,
2013-02-18 04:17:00,30.3,19.0,30.39,North,355,0.0,-999.0,62,-99.99,,,0.00,weatherlink.com 1.10,2013-02-18 09:17:00,
2013-02-18 04:32:00,29.9,19.0,30.39,North,350,0.0,-999.0,63,-99.99,,,0.00,weatherlink.com 1.10,2013-02-18 09:32:00,
2013-02-18 04:47:00,29.9,19.0,30.40,North,360,0.0,-999.0,65,-99.99,,,0.00,weatherlink.com 1.10,2013-02-18 09:47:00,
2013-02-18 05:02:00,29.5,19.0,30.41,North,10,0.0,-999.0,64,-99.99,,,0.00,weatherlink.com 1.10,2013-02-18 10:02:00,
2013-02-18 05:17:00,29.0,19.0,30.42,North,355,0.0,-999.0,66,-99.99,,,0.00,weatherlink.com 1.10,2013-02-18 10:17:00,
2013-02-18 05:32:00,28.9,19.0,30.42,North,5,0.0,-999.0,67,-99.99,,,0.00,weatherlink.com 1.10,2013-02-18 10:32:00,
2013-02-18 05:47:00,28.8,19.0,30.43,North,355,0.0,-999.0,67,-99.99,,,0.00,weatherlink.com 1.10,2013-02-18 10:47:00,
2013-02-18 06:02:00,28.8,19.0,30.42,NE,38,0.0,-999.0,68,-99.99,,,0.00,weatherlink.com 1.10,2013-02-18 11:02:00,
2013-02-18 06:17:00,28.7,19.0,30.43,NNE,15,0.0,-999.0,67,-99.99,,,0.00,weatherlink.com 1.10,2013-02-18 11:17:00,
2013-02-18 06:32:00,28.8,19.0,30.43,North,5,0.0,-999.0,66,-99.99,,,0.00,weatherlink.com 1.10,2013-02-18 11:32:00,
2013-02-18 06:47:00,29.1,17.0,30.44,NNE,12,0.0,-999.0,62,-99.99,,,0.00,weatherlink.com 1.10,2013-02-18 11:47:00,
2013-02-18 07:02:00,29.3,18.0,30.45,North,355,0.0,-999.0,62,-99.99,,,0.00,weatherlink.com 1.10,2013-02-18 12:02:00,
2013-02-18 07:18:00,29.8,18.0,30.45,NNE,18,0.0,-999.0,61,-99.99,,,0.00,weatherlink.com 1.10,2013-02-18 12:18:00,
2013-02-18 07:33:00,30.4,18.0,30.46,NNE,22,0.0,-999.0,60,-99.99,,,0.00,weatherlink.com 1.10,2013-02-18 12:33:00,
2013-02-18 07:48:00,30.9,18.0,30.46,North,5,0.0,-999.0,60,-99.99,,,0.00,weatherlink.com 1.10,2013-02-18 12:48:00,
2013-02-18 08:03:00,31.9,18.0,30.47,North,10,0.0,-999.0,58,-99.99,,,0.00,weatherlink.com 1.10,2013-02-18 13:03:00,
2013-02-18 08:18:00,32.4,18.0,30.48,NNW,346,0.0,-999.0,56,-99.99,,,0.00,weatherlink.com 1.10,2013-02-18 13:18:00,
2013-02-18 08:33:00,33.1,18.0,30.48,NE,38,0.0,-999.0,54,-99.99,,,0.00,weatherlink.com 1.10,2013-02-18 13:33:00,
2013-02-18 08:48:00,34.4,17.0,30.48,NE,53,0.0,-999.0,50,-99.99,,,0.00,weatherlink.com 1.10,2013-02-18 13:48:00,
2013-02-18 09:03:00,34.7,16.0,30.49,NE,53,0.0,-999.0,47,-99.99,,,0.00,weatherlink.com 1.10,2013-02-18 14:03:00,
2013-02-18 09:18:00,36.1,16.0,30.50,NE,49,0.0,-999.0,45,-99.99,,,0.00,weatherlink.com 1.10,2013-02-18 14:18:00,
2013-02-18 09:33:00,37.3,18.0,30.50,NNE,30,0.0,-999.0,45,-99.99,,,0.00,weatherlink.com 1.10,2013-02-18 14:33:00,
2013-02-18 09:48:00,37.9,17.0,30.50,ENE,67,0.0,-999.0,43,-99.99,,,0.00,weatherlink.com 1.10,2013-02-18 14:48:00,
2013-02-18 10:03:00,38.6,18.0,30.50,NE,42,0.0,-999.0,43,-99.99,,,0.00,weatherlink.com 1.10,2013-02-18 15:03:00,
2013-02-18 10:18:00,39.5,17.0,30.50,ENE,72,0.0,-999.0,40,-99.99,,,0.00,weatherlink.com 1.10,2013-02-18 15:18:00,
2013-02-18 10:33:00,41.4,17.0,30.50,North,5,0.0,-999.0,37,-99.99,,,0.00,weatherlink.com 1.10,2013-02-18 15:33:00,
2013-02-18 10:48:00,41.0,19.0,30.49,ESE,119,0.0,-999.0,42,-99.99,,,0.00,weatherlink.com 1.10,2013-02-18 15:48:00,
2013-02-18 11:03:00,40.0,19.0,30.50,ESE,122,0.0,-999.0,43,-99.99,,,0.00,weatherlink.com 1.10,2013-02-18 16:03:00,
2013-02-18 11:18:00,40.1,20.0,30.50,SSE,157,0.0,-999.0,45,-99.99,,,0.00,weatherlink.com 1.10,2013-02-18 16:18:00,
2013-02-18 11:33:00,40.2,20.0,30.49,SSE,148,0.0,-999.0,44,-99.99,,,0.00,weatherlink.com 1.10,2013-02-18 16:33:00,
2013-02-18 11:48:00,40.1,20.0,30.48,SSE,167,0.0,-999.0,44,-99.99,,,0.00,weatherlink.com 1.10,2013-02-18 16:48:00,
2013-02-18 12:03:00,40.9,21.0,30.48,SSE,157,0.0,-999.0,45,-99.99,,,0.00,weatherlink.com 1.10,2013-02-18 17:03:00,
2013-02-18 12:18:00,42.0,22.0,30.48,South,190,0.0,-999.0,46,-99.99,,,0.00,weatherlink.com 1.10,2013-02-18 17:18:00,
2013-02-18 12:33:00,41.7,23.0,30.47,SSW,194,0.0,-999.0,47,-99.99,,,0.00,weatherlink.com 1.10,2013-02-18 17:33:00,
2013-02-18 12:48:00,42.8,24.0,30.47,South,182,0.0,-999.0,47,-99.99,,,0.00,weatherlink.com 1.10,2013-02-18 17:48:00,
2013-02-18 13:03:00,43.1,23.0,30.46,South,188,0.0,-999.0,46,-99.99,,,0.00,weatherlink.com 1.10,2013-02-18 18:03:00,
2013-02-18 13:18:00,42.7,23.0,30.44,South,181,0.0,-999.0,46,-99.99,,,0.00,weatherlink.com 1.10,2013-02-18 18:18:00,
2013-02-18 13:33:00,42.4,23.0,30.45,South,183,0.0,-999.0,47,-99.99,,,0.00,weatherlink.com 1.10,2013-02-18 18:33:00,
2013-02-18 13:48:00,43.7,24.0,30.43,SSW,196,0.0,-999.0,47,-99.99,,,0.00,weatherlink.com 1.10,2013-02-18 18:48:00,
2013-02-18 14:03:00,43.6,25.0,30.43,SSW,205,0.0,-999.0,49,-99.99,,,0.00,weatherlink.com 1.10,2013-02-18 19:03:00,
2013-02-18 14:18:00,45.0,26.0,30.43,South,175,0.0,-999.0,48,-99.99,,,0.00,weatherlink.com 1.10,2013-02-18 19:18:00,
2013-02-18 14:33:00,44.6,27.0,30.42,South,174,0.0,-999.0,50,-99.99,,,0.00,weatherlink.com 1.10,2013-02-18 19:33:00,
2013-02-18 14:48:00,44.6,27.0,30.42,South,181,0.0,-999.0,50,-99.99,,,0.00,weatherlink.com 1.10,2013-02-18 19:48:00,
2013-02-18 15:03:00,44.8,28.0,30.42,South,189,0.0,-999.0,53,-99.99,,,0.00,weatherlink.com 1.10,2013-02-18 20:03:00,
2013-02-18 15:18:00,44.8,25.0,30.42,South,174,0.0,-999.0,47,-99.99,,,0.00,weatherlink.com 1.10,2013-02-18 20:18:00,
2013-02-18 15:33:00,45.0,26.0,30.41,South,180,0.0,-999.0,48,-99.99,,,0.00,weatherlink.com 1.10,2013-02-18 20:33:00,
2013-02-18 15:48:00,44.6,27.0,30.41,South,178,0.0,-999.0,50,-99.99,,,0.00,weatherlink.com 1.10,2013-02-18 20:48:00,
2013-02-18 16:03:00,45.2,28.0,30.42,South,178,0.0,-999.0,51,-99.99,,,0.00,weatherlink.com 1.10,2013-02-18 21:03:00,
2013-02-18 16:18:00,45.8,28.0,30.42,SSW,197,0.0,-999.0,51,-99.99,,,0.00,weatherlink.com 1.10,2013-02-18 21:18:00,
2013-02-18 16:48:00,45.8,29.0,30.42,SSW,204,0.0,-999.0,52,-99.99,,,0.00,weatherlink.com 1.10,2013-02-18 21:48:00,
2013-02-18 17:03:00,45.8,27.0,30.42,SSW,207,0.0,-999.0,49,-99.99,,,0.00,weatherlink.com 1.10,2013-02-18 22:03:00,
2013-02-18 17:18:00,45.6,28.0,30.42,SSW,211,0.0,-999.0,51,-99.99,,,0.00,weatherlink.com 1.10,2013-02-18 22:18:00,
2013-02-18 17:49:00,45.3,28.0,30.42,SSW,206,0.0,-999.0,52,-99.99,,,0.00,weatherlink.com 1.10,2013-02-18 22:49:00,
2013-02-18 18:04:00,45.4,29.0,30.42,SSW,209,0.0,-999.0,53,-99.99,,,0.00,weatherlink.com 1.10,2013-02-18 23:04:00,
2013-02-18 18:19:00,45.6,29.0,30.42,SSW,200,0.0,-999.0,53,-99.99,,,0.00,weatherlink.com 1.10,2013-02-18 23:19:00,
2013-02-18 18:34:00,46.0,30.0,30.42,SSW,209,0.0,-999.0,55,-99.99,,,0.00,weatherlink.com 1.10,2013-02-18 23:34:00,
2013-02-18 18:49:00,46.3,31.0,30.43,SSW,202,0.0,-999.0,56,-99.99,,,0.00,weatherlink.com 1.10,2013-02-18 23:49:00,
2013-02-18 19:04:00,46.7,31.0,30.43,SSW,212,0.0,-999.0,54,-99.99,,,0.00,weatherlink.com 1.10,2013-02-19 00:04:00,
2013-02-18 19:19:00,47.0,32.0,30.42,SSW,206,0.0,-999.0,56,-99.99,,,0.00,weatherlink.com 1.10,2013-02-19 00:19:00,
2013-02-18 19:34:00,47.0,31.0,30.42,SSW,213,0.0,-999.0,54,-99.99,,,0.00,weatherlink.com 1.10,2013-02-19 00:34:00,
2013-02-18 19:49:00,47.4,31.0,30.42,SSW,200,0.0,-999.0,54,-99.99,,,0.00,weatherlink.com 1.10,2013-02-19 00:49:00,
2013-02-18 20:04:00,47.8,32.0,30.41,SSW,213,0.0,-999.0,54,-99.99,,,0.00,weatherlink.com 1.10,2013-02-19 01:04:00,
2013-02-18 20:19:00,48.1,30.0,30.41,SW,218,0.0,-999.0,49,-99.99,,,0.00,weatherlink.com 1.10,2013-02-19 01:19:00,
2013-02-18 20:34:00,48.1,30.0,30.41,SW,220,0.0,-999.0,50,-99.99,,,0.00,weatherlink.com 1.10,2013-02-19 01:34:00,
2013-02-18 20:49:00,48.2,33.0,30.41,SSW,213,0.0,-999.0,56,-99.99,,,0.00,weatherlink.com 1.10,2013-02-19 01:49:00,
2013-02-18 21:04:00,48.2,33.0,30.41,SW,216,0.0,-999.0,56,-99.99,,,0.00,weatherlink.com 1.10,2013-02-19 02:04:00,
2013-02-18 21:19:00,48.6,34.0,30.41,SSW,206,0.0,-999.0,58,-99.99,,,0.00,weatherlink.com 1.10,2013-02-19 02:19:00,
2013-02-18 21:34:00,48.8,36.0,30.41,SSW,203,0.0,-999.0,61,-99.99,,,0.00,weatherlink.com 1.10,2013-02-19 02:34:00,
2013-02-18 21:49:00,49.0,35.0,30.40,SSW,207,0.0,-999.0,60,-99.99,,,0.00,weatherlink.com 1.10,2013-02-19 02:49:00,
2013-02-18 22:19:00,49.6,37.0,30.40,SSW,204,0.0,-999.0,63,-99.99,,,0.00,weatherlink.com 1.10,2013-02-19 03:19:00,
2013-02-18 22:34:00,49.7,37.0,30.39,SSW,211,0.0,-999.0,63,-99.99,,,0.00,weatherlink.com 1.10,2013-02-19 03:34:00,
2013-02-18 22:49:00,50.2,39.0,30.38,SSW,211,0.0,-999.0,66,-99.99,,,0.00,weatherlink.com 1.10,2013-02-19 03:49:00,
2013-02-18 23:04:00,50.9,41.0,30.37,SSW,209,0.0,-999.0,68,-99.99,,,0.00,weatherlink.com 1.10,2013-02-19 04:04:00,
2013-02-18 23:19:00,51.0,41.0,30.36,SSW,206,0.0,-999.0,69,-99.99,,,0.00,weatherlink.com 1.10,2013-02-19 04:19:00,
2013-02-18 23:34:00,51.2,41.0,30.36,SSW,207,0.0,-999.0,68,-99.99,,,0.00,weatherlink.com 1.10,2013-02-19 04:34:00,
2013-02-18 23:49:00,51.5,41.0,30.36,SSW,206,0.0,-999.0,68,-99.99,,,0.00,weatherlink.com 1.10,2013-02-19 04:49:00,